TimeCST,TemperatureF,Dew PointF,Humidity,Sea Level PressureIn,VisibilityMPH,Wind Direction,Wind SpeedMPH,Gust SpeedMPH,PrecipitationIn,Events,Conditions,WindDirDegrees,DateUTC
12:15 AM,43.7,40.6,89,29.83,10.0,WNW,10.4,-,N/A,,Overcast,300,2012-12-10 06:15:00
12:35 AM,43.7,38.7,82,29.83,10.0,WNW,12.7,17.3,N/A,,Overcast,300,2012-12-10 06:35:00
12:55 AM,43.3,37.8,81,29.83,10.0,West,9.2,-,N/A,,Overcast,280,2012-12-10 06:55:00
1:15 AM,43.2,37.9,82,29.84,10.0,West,5.8,-,N/A,,Overcast,280,2012-12-10 07:15:00
1:35 AM,42.3,37.8,84,29.83,10.0,West,4.6,-,N/A,,Scattered Clouds,280,2012-12-10 07:35:00
1:55 AM,41.9,37.8,85,29.84,10.0,Calm,Calm,-,N/A,,Clear,0,2012-12-10 07:55:00
2:15 AM,41.9,37.6,85,29.83,10.0,West,3.5,-,N/A,,Clear,270,2012-12-10 08:15:00
2:35 AM,42.1,38.3,86,29.83,10.0,Calm,Calm,-,N/A,,Mostly Cloudy,0,2012-12-10 08:35:00
2:55 AM,41.9,38.8,89,29.82,10.0,Calm,Calm,-,N/A,,Overcast,0,2012-12-10 08:55:00
3:15 AM,42.3,39.4,90,29.82,10.0,WSW,5.8,-,N/A,,Overcast,250,2012-12-10 09:15:00
3:35 AM,42.8,38.5,85,29.81,10.0,WNW,5.8,-,N/A,,Overcast,290,2012-12-10 09:35:00
3:55 AM,41.9,37.6,85,29.81,10.0,West,11.5,18.4,N/A,,Overcast,280,2012-12-10 09:55:00
4:15 AM,39.9,35.2,83,29.80,10.0,WNW,11.5,-,N/A,,Mostly Cloudy,300,2012-12-10 10:15:00
4:35 AM,38.8,34.5,84,29.80,10.0,WNW,12.7,16.1,N/A,,Scattered Clouds,290,2012-12-10 10:35:00
4:55 AM,38.3,34.7,87,29.81,10.0,WNW,12.7,-,N/A,,Clear,290,2012-12-10 10:55:00
5:15 AM,37.4,34.0,87,29.81,10.0,WNW,13.8,19.6,N/A,,Mostly Cloudy,290,2012-12-10 11:15:00
5:35 AM,36.7,32.9,86,29.83,10.0,West,17.3,-,N/A,,Overcast,260,2012-12-10 11:35:00
5:55 AM,35.6,32.5,89,29.83,10.0,West,12.7,-,N/A,,Overcast,270,2012-12-10 11:55:00
6:15 AM,35.1,32.2,89,29.84,10.0,West,11.5,15.0,N/A,,Overcast,280,2012-12-10 12:15:00
6:55 AM,34.0,32.0,92,29.86,10.0,West,11.5,-,N/A,,Overcast,270,2012-12-10 12:55:00
7:15 AM,33.6,31.1,90,29.86,10.0,West,13.8,19.6,N/A,,Overcast,280,2012-12-10 13:15:00
7:35 AM,33.3,30.2,89,29.87,10.0,West,11.5,-,N/A,,Overcast,280,2012-12-10 13:35:00
7:55 AM,32.9,29.8,88,29.87,10.0,West,12.7,-,N/A,,Overcast,270,2012-12-10 13:55:00
8:15 AM,32.5,29.1,87,29.89,10.0,WNW,12.7,-,N/A,,Overcast,290,2012-12-10 14:15:00
8:35 AM,32.9,29.7,88,29.88,10.0,West,16.1,20.7,N/A,,Overcast,270,2012-12-10 14:35:00
8:55 AM,32.9,29.5,87,29.89,10.0,WNW,13.8,-,N/A,,Overcast,300,2012-12-10 14:55:00
9:15 AM,32.9,29.8,88,29.89,10.0,West,11.5,18.4,N/A,,Overcast,280,2012-12-10 15:15:00
9:35 AM,32.5,29.8,90,29.89,10.0,WNW,13.8,-,N/A,,Overcast,290,2012-12-10 15:35:00
9:55 AM,32.4,29.7,90,29.89,10.0,West,15.0,18.4,N/A,,Overcast,270,2012-12-10 15:55:00
10:35 AM,32.9,28.8,85,29.89,10.0,West,15.0,-,N/A,,Overcast,280,2012-12-10 16:35:00
10:55 AM,33.3,28.4,82,29.89,10.0,WNW,13.8,-,N/A,,Overcast,300,2012-12-10 16:55:00
11:15 AM,33.1,28.8,84,29.89,10.0,West,16.1,21.9,N/A,,Overcast,280,2012-12-10 17:15:00
11:55 AM,32.9,29.3,87,29.89,10.0,West,16.1,24.2,N/A,,Overcast,280,2012-12-10 17:55:00
12:15 PM,32.9,28.8,85,29.88,10.0,WNW,12.7,20.7,N/A,,Overcast,290,2012-12-10 18:15:00
12:35 PM,32.2,28.6,87,29.88,10.0,WNW,13.8,21.9,N/A,,Overcast,290,2012-12-10 18:35:00
12:55 PM,32.2,28.6,87,29.87,10.0,WNW,13.8,17.3,N/A,,Overcast,300,2012-12-10 18:55:00
1:15 PM,32.0,28.9,88,29.87,10.0,WNW,12.7,-,N/A,,Overcast,290,2012-12-10 19:15:00
1:35 PM,32.0,28.4,87,29.87,10.0,West,12.7,18.4,N/A,,Overcast,280,2012-12-10 19:35:00
1:55 PM,32.2,28.9,88,29.87,10.0,West,9.2,18.4,N/A,,Overcast,280,2012-12-10 19:55:00
2:15 PM,32.2,28.9,88,29.89,10.0,West,11.5,-,N/A,,Overcast,280,2012-12-10 20:15:00
2:35 PM,32.4,29.3,88,29.89,10.0,West,13.8,-,N/A,,Overcast,280,2012-12-10 20:35:00
2:55 PM,32.4,28.9,87,29.89,10.0,West,12.7,17.3,N/A,,Overcast,280,2012-12-10 20:55:00
3:15 PM,32.4,29.1,88,29.89,10.0,West,10.4,-,N/A,,Overcast,280,2012-12-10 21:15:00
3:35 PM,32.2,28.9,88,29.91,10.0,West,12.7,-,N/A,,Overcast,280,2012-12-10 21:35:00
3:55 PM,32.0,28.8,88,29.93,10.0,West,12.7,-,N/A,,Overcast,270,2012-12-10 21:55:00
4:15 PM,32.2,28.9,88,29.93,10.0,WNW,10.4,-,N/A,,Overcast,290,2012-12-10 22:15:00
4:35 PM,32.2,29.1,88,29.93,10.0,West,10.4,17.3,N/A,,Overcast,280,2012-12-10 22:35:00
4:55 PM,32.4,28.9,87,29.93,10.0,West,11.5,-,N/A,,Overcast,280,2012-12-10 22:55:00
5:15 PM,32.5,29.1,87,29.94,10.0,West,11.5,20.7,N/A,,Overcast,280,2012-12-10 23:15:00
5:35 PM,32.5,29.3,88,29.96,10.0,West,10.4,-,N/A,,Overcast,270,2012-12-10 23:35:00
5:55 PM,32.9,29.1,86,29.97,10.0,West,13.8,-,N/A,,Overcast,280,2012-12-10 23:55:00
6:15 PM,32.9,28.2,83,29.97,10.0,WNW,12.7,-,N/A,,Overcast,290,2012-12-11 00:15:00
6:35 PM,32.5,28.2,84,29.98,10.0,West,11.5,20.7,N/A,,Overcast,280,2012-12-11 00:35:00
6:55 PM,32.4,27.9,83,29.98,10.0,West,11.5,20.7,N/A,,Overcast,280,2012-12-11 00:55:00
7:15 PM,32.4,28.2,85,29.99,10.0,West,11.5,17.3,N/A,,Overcast,270,2012-12-11 01:15:00
7:35 PM,32.4,28.0,84,30.00,10.0,West,12.7,-,N/A,,Overcast,270,2012-12-11 01:35:00
7:55 PM,32.4,27.5,82,30.00,10.0,West,11.5,17.3,N/A,,Overcast,270,2012-12-11 01:55:00
8:15 PM,32.4,27.9,83,30.01,10.0,West,8.1,-,N/A,,Overcast,270,2012-12-11 02:15:00
8:35 PM,32.4,28.0,84,30.02,10.0,West,12.7,-,N/A,,Overcast,270,2012-12-11 02:35:00
8:55 PM,32.4,28.0,84,30.02,10.0,West,8.1,-,N/A,,Overcast,280,2012-12-11 02:55:00
9:15 PM,32.4,28.4,85,30.02,10.0,West,10.4,-,N/A,,Overcast,280,2012-12-11 03:15:00
9:55 PM,32.4,28.0,84,30.03,10.0,West,6.9,-,N/A,,Overcast,280,2012-12-11 03:55:00
10:15 PM,32.4,28.2,85,30.03,10.0,West,9.2,-,N/A,,Overcast,270,2012-12-11 04:15:00
10:35 PM,32.2,28.0,85,30.03,10.0,West,8.1,-,N/A,,Overcast,270,2012-12-11 04:35:00
10:55 PM,32.2,28.2,85,30.04,10.0,West,5.8,-,N/A,,Overcast,260,2012-12-11 04:55:00
11:15 PM,32.2,27.5,83,30.04,10.0,West,10.4,-,N/A,,Overcast,280,2012-12-11 05:15:00
11:35 PM,32.2,27.1,82,30.05,10.0,West,8.1,-,N/A,,Overcast,280,2012-12-11 05:35:00
11:55 PM,32.2,27.5,83,30.05,10.0,West,8.1,-,N/A,,Overcast,280,2012-12-11 05:55:00